createdAt,value
2022-09-10T00:00:34.594Z,99982.91
2022-09-10T00:03:37.674Z,99985.28
2022-09-10T00:06:41.699Z,99992.03
2022-09-10T00:09:45.433Z,99983.69
2022-09-10T00:12:48.516Z,99986.59
2022-09-10T00:15:53.900Z,99981.66
2022-09-10T00:18:57.522Z,99990.38
2022-09-10T00:22:00.776Z,99989.94
2022-09-10T00:25:08.132Z,99994.78
2022-09-10T00:28:11.551Z,99995.03
2022-09-10T00:31:14.962Z,99992.56
2022-09-10T00:34:17.948Z,100000.28
2022-09-10T00:37:20.811Z,100000.37
2022-09-10T00:40:23.676Z,99999.72
2022-09-10T00:43:26.881Z,100000.13
2022-09-10T00:46:44.706Z,99994.56
2022-09-10T00:49:52.810Z,99997.12
2022-09-10T00:53:01.074Z,100005.81
2022-09-10T00:56:05.216Z,100009.28
2022-09-10T00:59:10.928Z,100003.37
2022-09-10T01:02:14.384Z,100003.19
2022-09-10T01:05:19.872Z,100009.72
2022-09-10T01:08:22.615Z,99998.91
2022-09-10T01:12:04.533Z,99998.28
2022-09-10T01:15:39.124Z,99990.62
2022-09-10T01:18:55.175Z,99981.66
2022-09-10T01:22:19.333Z,99980.00
2022-09-10T01:25:31.272Z,99966.84
2022-09-10T01:28:57.104Z,99957.16
2022-09-10T01:32:07.096Z,99954.66
2022-09-10T01:35:36.563Z,99952.00
2022-09-10T01:38:42.127Z,99970.03
2022-09-10T01:41:48.565Z,99975.19
2022-09-10T01:44:53.151Z,99990.53
2022-09-10T01:48:33.747Z,99989.16
2022-09-10T01:51:58.073Z,99976.78
2022-09-10T01:55:17.456Z,99959.34
2022-09-10T01:58:35.529Z,99962.00
2022-09-10T02:01:49.246Z,99975.75
2022-09-10T02:04:53.870Z,99982.62
2022-09-10T02:08:02.120Z,99978.56
2022-09-10T02:11:09.876Z,99984.94
2022-09-10T02:14:15.049Z,99963.31
2022-09-10T02:17:31.378Z,99952.84
2022-09-10T02:20:34.900Z,99932.72
2022-09-10T02:23:46.572Z,99933.31
2022-09-10T02:26:49.596Z,99940.31
2022-09-10T02:29:55.549Z,99951.41
2022-09-10T02:32:58.806Z,99947.44
2022-09-10T02:36:03.836Z,99952.84
2022-09-10T02:39:08.212Z,99936.28
2022-09-10T02:42:12.799Z,99933.22
2022-09-10T02:45:15.795Z,99937.03
2022-09-10T02:48:18.829Z,99936.66
2022-09-10T02:51:22.944Z,99932.25
2022-09-10T02:54:26.535Z,99936.34
2022-09-10T02:57:29.985Z,99934.53
2022-09-10T03:00:34.229Z,99927.34
2022-09-10T03:03:37.653Z,99922.47
2022-09-10T03:06:41.347Z,99925.72
2022-09-10T03:09:45.208Z,99922.56
2022-09-10T03:12:48.220Z,99919.34
2022-09-10T03:15:51.343Z,99924.59
2022-09-10T03:18:54.399Z,99920.56
2022-09-10T03:21:57.678Z,99930.22
2022-09-10T03:25:01.709Z,99928.69
2022-09-10T03:28:04.414Z,99924.66
2022-09-10T03:31:08.780Z,99929.81
2022-09-10T03:34:13.041Z,99928.31
2022-09-10T03:37:17.112Z,99928.97
2022-09-10T03:40:19.892Z,99932.09
2022-09-10T03:43:22.903Z,99932.09
2022-09-10T03:46:25.623Z,99926.97
2022-09-10T03:49:29.333Z,99933.63
2022-09-10T03:52:35.808Z,99927.91
2022-09-10T03:55:39.257Z,99938.03
2022-09-10T03:58:43.306Z,99941.03
2022-09-10T04:01:46.555Z,99934.69
2022-09-10T04:04:49.599Z,99934.47
2022-09-10T04:07:53.940Z,99934.84
2022-09-10T04:11:02.704Z,99930.78
2022-09-10T04:14:06.142Z,99939.50
2022-09-10T04:17:10.982Z,99946.75
2022-09-10T04:20:15.918Z,99947.66
2022-09-10T04:23:18.877Z,99943.25
2022-09-10T04:26:22.784Z,99938.88
2022-09-10T04:29:25.792Z,99940.34
2022-09-10T04:32:28.639Z,99943.25
2022-09-10T04:35:32.386Z,99943.91
2022-09-10T04:38:40.210Z,99950.50
2022-09-10T04:41:43.560Z,99957.75
2022-09-10T04:44:47.397Z,99958.50
2022-09-10T04:47:52.252Z,99961.63
2022-09-10T04:51:15.351Z,99966.78
2022-09-10T04:54:18.377Z,99965.91
2022-09-10T04:57:22.285Z,99959.91
2022-09-10T05:00:26.713Z,99962.22
2022-09-10T05:03:29.850Z,99960.12
2022-09-10T05:06:33.908Z,99960.84
2022-09-10T05:09:36.686Z,99970.75
2022-09-10T05:12:39.822Z,99970.97
2022-09-10T05:15:43.135Z,99963.87
2022-09-10T05:18:46.187Z,99964.56
2022-09-10T05:21:49.202Z,99969.91
2022-09-10T05:24:52.279Z,99978.31
2022-09-10T05:27:56.463Z,99981.84
2022-09-10T05:30:59.583Z,99978.34
2022-09-10T05:34:03.199Z,99979.56
2022-09-10T05:37:08.845Z,99977.56
2022-09-10T05:40:14.351Z,99975.78
2022-09-10T05:43:17.551Z,99972.00
2022-09-10T05:46:20.568Z,99967.97
2022-09-10T05:49:24.468Z,99972.25
2022-09-10T05:52:27.186Z,99966.94
2022-09-10T05:55:33.533Z,99969.63
2022-09-10T05:58:36.397Z,99968.56
2022-09-10T06:01:41.279Z,99967.25
2022-09-10T06:04:44.475Z,99965.88
2022-09-10T06:07:47.109Z,99962.72
2022-09-10T06:11:02.721Z,99958.69
2022-09-10T06:14:06.195Z,99954.22
2022-09-10T06:17:09.246Z,99965.53
2022-09-10T06:20:15.957Z,99963.37
2022-09-10T06:23:19.633Z,99959.62
2022-09-10T06:26:22.967Z,99961.22
2022-09-10T06:29:30.584Z,99960.97
2022-09-10T06:32:33.780Z,99956.28
2022-09-10T06:35:37.562Z,99959.34
2022-09-10T06:38:41.261Z,99951.56
2022-09-10T06:41:49.755Z,99953.09
2022-09-10T06:45:02.785Z,99965.78
2022-09-10T06:48:37.602Z,99964.34
2022-09-10T06:51:35.853Z,99972.56
2022-09-10T06:54:38.995Z,99975.47
2022-09-10T06:57:45.976Z,99966.41
2022-09-10T07:00:51.040Z,99974.41
2022-09-10T07:03:59.162Z,99981.53
2022-09-10T07:07:03.150Z,99991.22
2022-09-10T07:10:09.732Z,99998.69
2022-09-10T07:13:16.695Z,100002.66
2022-09-10T07:16:21.256Z,99996.44
2022-09-10T07:19:24.379Z,99998.59
2022-09-10T07:22:27.396Z,100004.50
2022-09-10T07:25:30.409Z,100001.12
2022-09-10T07:28:34.605Z,99991.97
2022-09-10T07:31:38.551Z,99998.56
2022-09-10T07:34:41.892Z,99997.59
2022-09-10T07:37:46.812Z,99994.25
2022-09-10T07:40:49.857Z,99990.31
2022-09-10T07:43:54.668Z,99988.03
2022-09-10T07:46:58.099Z,99983.09
2022-09-10T07:50:01.320Z,99980.97
2022-09-10T07:53:04.129Z,99988.63
2022-09-10T07:56:08.092Z,99990.25
2022-09-10T07:59:11.875Z,99994.16
2022-09-10T08:02:15.727Z,99986.44
2022-09-10T08:05:21.756Z,99979.81
2022-09-10T08:08:32.098Z,99986.28
2022-09-10T08:11:35.598Z,99991.25
2022-09-10T08:14:38.594Z,99989.91
2022-09-10T08:17:41.711Z,100007.41
2022-09-10T08:20:44.519Z,100003.44
2022-09-10T08:23:52.051Z,100003.28
2022-09-10T08:26:55.051Z,100000.03
2022-09-10T08:29:58.152Z,100011.31
2022-09-10T08:33:01.213Z,100004.28
2022-09-10T08:36:05.985Z,99990.31
2022-09-10T08:39:08.661Z,99990.81
2022-09-10T08:42:24.750Z,99984.19
2022-09-10T08:45:33.117Z,99991.00
2022-09-10T08:48:41.038Z,99983.84
2022-09-10T08:51:53.186Z,99979.75
2022-09-10T08:55:10.085Z,99984.53
2022-09-10T08:58:19.772Z,99975.38
2022-09-10T09:01:31.915Z,99976.19
2022-09-10T09:04:50.448Z,99984.53
2022-09-10T09:07:58.768Z,99978.31
2022-09-10T09:11:47.752Z,99975.44
2022-09-10T09:15:15.098Z,99973.06
2022-09-10T09:18:38.558Z,99963.41
2022-09-10T09:21:52.126Z,99964.72
2022-09-10T09:24:58.712Z,99960.84
2022-09-10T09:28:03.705Z,99961.00
2022-09-10T09:31:17.345Z,99953.97
2022-09-10T09:34:34.304Z,99962.41
2022-09-10T09:37:38.495Z,99952.97
2022-09-10T09:40:46.909Z,99953.06
2022-09-10T09:44:05.889Z,99948.53
2022-09-10T09:47:10.494Z,99962.53
2022-09-10T09:50:14.125Z,99954.44
2022-09-10T09:53:23.864Z,99955.87
2022-09-10T09:56:36.439Z,99953.19
2022-09-10T09:59:39.460Z,99957.13
2022-09-10T10:02:42.077Z,99938.50
2022-09-10T10:05:45.142Z,99940.84
2022-09-10T10:09:20.417Z,99936.16
2022-09-10T10:12:23.478Z,99953.84
2022-09-10T10:15:42.142Z,99943.78
2022-09-10T10:18:46.399Z,99951.00
2022-09-10T10:21:48.932Z,99949.34
2022-09-10T10:24:54.434Z,99955.72
2022-09-10T10:27:57.783Z,99958.50
2022-09-10T10:31:01.294Z,99955.28
2022-09-10T10:34:09.769Z,99945.22
2022-09-10T10:37:35.526Z,99950.03
2022-09-10T10:40:51.387Z,99939.72
2022-09-10T10:44:24.330Z,99944.44
2022-09-10T10:47:33.683Z,99940.25
2022-09-10T10:51:05.927Z,99923.91
2022-09-10T10:54:33.448Z,99925.06
2022-09-10T10:57:59.725Z,99928.66
2022-09-10T11:01:09.201Z,99917.16
2022-09-10T11:04:44.283Z,99932.19
2022-09-10T11:07:48.805Z,99930.00
2022-09-10T11:11:13.376Z,99935.47
2022-09-10T11:14:16.522Z,99937.28
2022-09-10T11:17:34.427Z,99922.25
2022-09-10T11:20:50.236Z,99933.97
2022-09-10T11:24:16.814Z,99941.84
2022-09-10T11:27:36.058Z,99925.37
2022-09-10T11:30:45.232Z,99921.72
2022-09-10T11:34:26.341Z,99923.59
2022-09-10T11:37:32.716Z,99933.13
2022-09-10T11:40:52.419Z,99931.31
2022-09-10T11:44:36.256Z,99923.06
2022-09-10T11:47:43.100Z,99919.06
2022-09-10T11:50:56.557Z,99916.72
2022-09-10T11:54:01.236Z,99906.28
2022-09-10T11:57:15.004Z,99904.28
2022-09-10T12:00:19.030Z,99906.78
2022-09-10T12:03:41.036Z,99908.44
2022-09-10T12:06:59.528Z,99902.59
2022-09-10T12:10:24.224Z,99907.09
2022-09-10T12:13:27.011Z,99909.31
2022-09-10T12:16:46.477Z,99905.91
2022-09-10T12:19:56.104Z,99898.44
2022-09-10T12:22:59.936Z,99898.50
2022-09-10T12:26:14.508Z,99890.41
2022-09-10T12:29:34.200Z,99887.25
2022-09-10T12:32:36.979Z,99890.50
2022-09-10T12:35:46.514Z,99894.84
2022-09-10T12:39:24.411Z,99902.50
2022-09-10T12:42:34.806Z,99887.06
2022-09-10T12:46:14.698Z,99893.22
2022-09-10T12:49:17.725Z,99889.25
2022-09-10T12:52:35.166Z,99887.88
2022-09-10T12:55:59.832Z,99881.56
2022-09-10T12:59:26.740Z,99899.34
2022-09-10T13:02:37.994Z,99889.56
2022-09-10T13:05:50.291Z,99883.44
2022-09-10T13:08:54.603Z,99887.37
2022-09-10T13:12:04.155Z,99882.00
2022-09-10T13:15:19.941Z,99880.06
2022-09-10T13:18:34.230Z,99876.94
2022-09-10T13:21:52.614Z,99878.22
2022-09-10T13:25:06.232Z,99876.84
2022-09-10T13:28:31.355Z,99867.94
2022-09-10T13:31:38.381Z,99857.66
2022-09-10T13:35:06.982Z,99865.03
2022-09-10T13:38:21.467Z,99871.37
2022-09-10T13:41:50.637Z,99872.88
2022-09-10T13:45:16.090Z,99880.50
2022-09-10T13:48:29.103Z,99866.16
2022-09-10T13:51:41.673Z,99870.75
2022-09-10T13:54:52.933Z,99874.25
2022-09-10T13:58:05.156Z,99869.56
2022-09-10T14:01:08.284Z,99870.81
2022-09-10T14:04:35.584Z,99863.72
2022-09-10T14:07:38.188Z,99853.38
2022-09-10T14:10:57.228Z,99856.69
2022-09-10T14:14:12.102Z,99847.53
2022-09-10T14:17:22.018Z,99853.09
2022-09-10T14:20:29.210Z,99854.25
2022-09-10T14:23:33.446Z,99849.56
2022-09-10T14:26:36.831Z,99834.78
2022-09-10T14:29:39.843Z,99845.78
2022-09-10T14:32:44.824Z,99836.19
2022-09-10T14:35:51.688Z,99848.53
2022-09-10T14:39:15.714Z,99846.84
2022-09-10T14:42:34.334Z,99846.84
2022-09-10T14:45:38.143Z,99840.87
2022-09-10T14:49:02.732Z,99843.59
2022-09-10T14:52:06.821Z,99850.50
2022-09-10T14:55:11.679Z,99854.34
2022-09-10T14:58:14.293Z,99854.78
2022-09-10T15:01:18.330Z,99847.03
2022-09-10T15:04:29.915Z,99856.78
2022-09-10T15:07:34.876Z,99844.38
2022-09-10T15:10:37.681Z,99853.72
2022-09-10T15:13:43.598Z,99858.28
2022-09-10T15:16:46.755Z,99863.03
2022-09-10T15:19:50.109Z,99861.72
2022-09-10T15:22:52.804Z,99876.81
2022-09-10T15:25:59.090Z,99874.69
2022-09-10T15:29:01.691Z,99874.94
2022-09-10T15:32:04.807Z,99883.06
2022-09-10T15:35:09.290Z,99881.34
2022-09-10T15:38:16.525Z,99889.47
2022-09-10T15:41:19.177Z,99886.16
2022-09-10T15:44:24.493Z,99889.88
2022-09-10T15:47:28.173Z,99898.78
2022-09-10T15:50:31.879Z,99899.12
2022-09-10T15:53:34.534Z,99902.13
2022-09-10T15:56:39.202Z,99904.28
2022-09-10T15:59:41.994Z,99911.91
2022-09-10T16:02:49.739Z,99924.63
2022-09-10T16:05:52.722Z,99927.72
2022-09-10T16:08:57.937Z,99929.88
2022-09-10T16:12:00.834Z,99932.47
2022-09-10T16:15:05.364Z,99942.88
2022-09-10T16:18:08.403Z,99952.03
2022-09-10T16:21:22.509Z,99961.41
2022-09-10T16:24:25.512Z,99947.75
2022-09-10T16:27:28.149Z,99956.91
2022-09-10T16:30:31.015Z,99959.28
2022-09-10T16:33:33.866Z,99955.56
2022-09-10T16:36:38.335Z,99960.88
2022-09-10T16:39:42.047Z,99964.13
2022-09-10T16:42:48.356Z,99957.25
2022-09-10T16:45:52.471Z,99961.72
2022-09-10T16:48:56.551Z,99958.06
2022-09-10T16:51:59.786Z,99945.75
2022-09-10T16:55:07.217Z,99956.00
2022-09-10T16:58:11.482Z,99954.28
2022-09-10T17:01:15.981Z,99948.97
2022-09-10T17:04:25.952Z,99954.31
2022-09-10T17:07:30.514Z,99954.63
2022-09-10T17:10:33.091Z,99948.41
2022-09-10T17:13:36.321Z,99950.16
2022-09-10T17:16:41.070Z,99946.72
2022-09-10T17:19:44.197Z,99946.56
2022-09-10T17:22:47.086Z,99957.78
2022-09-10T17:25:50.033Z,99970.94
2022-09-10T17:28:58.059Z,99971.47
2022-09-10T17:32:01.579Z,99975.72
2022-09-10T17:35:04.698Z,99984.88
2022-09-10T17:38:08.079Z,99990.56
2022-09-10T17:41:13.003Z,100004.38
2022-09-10T17:44:16.866Z,99991.97
2022-09-10T17:47:20.055Z,99997.69
2022-09-10T17:50:24.002Z,99996.19
2022-09-10T17:53:28.265Z,100007.72
2022-09-10T17:56:31.858Z,99999.59
2022-09-10T17:59:35.329Z,100017.38
2022-09-10T18:02:38.412Z,100016.03
2022-09-10T18:05:43.018Z,100021.03
2022-09-10T18:08:45.697Z,100018.94
2022-09-10T18:11:48.737Z,100020.97
2022-09-10T18:14:51.778Z,100033.53
2022-09-10T18:17:56.364Z,100033.34
2022-09-10T18:21:09.872Z,100035.31
2022-09-10T18:24:19.345Z,100021.84
2022-09-10T18:27:22.195Z,100035.81
2022-09-10T18:30:28.874Z,100036.69
2022-09-10T18:33:37.670Z,100040.37
2022-09-10T18:36:41.120Z,100036.00
2022-09-10T18:39:44.785Z,100044.00
2022-09-10T18:42:48.076Z,100047.75
2022-09-10T18:45:50.933Z,100047.41
2022-09-10T18:48:54.081Z,100050.78
2022-09-10T18:51:57.719Z,100058.34
2022-09-10T18:55:00.667Z,100051.44
2022-09-10T18:58:04.674Z,100059.56
2022-09-10T19:01:11.916Z,100061.72
2022-09-10T19:04:18.014Z,100041.06
2022-09-10T19:07:21.602Z,100047.44
2022-09-10T19:10:24.307Z,100040.00
2022-09-10T19:13:27.230Z,100047.25
2022-09-10T19:16:32.035Z,100046.47
2022-09-10T19:19:36.610Z,100043.66
2022-09-10T19:22:39.609Z,100048.81
2022-09-10T19:25:57.149Z,100057.41
2022-09-10T19:29:01.649Z,100059.84
2022-09-10T19:32:07.006Z,100053.22
2022-09-10T19:35:11.763Z,100065.44
2022-09-10T19:38:36.737Z,100062.16
2022-09-10T19:41:42.188Z,100068.25
2022-09-10T19:44:45.452Z,100067.03
2022-09-10T19:47:48.214Z,100060.81
2022-09-10T19:50:52.508Z,100058.56
2022-09-10T19:53:56.072Z,100075.25
2022-09-10T19:56:59.262Z,100071.88
2022-09-10T20:00:02.132Z,100077.59
2022-09-10T20:03:14.902Z,100071.56
2022-09-10T20:06:21.531Z,100061.19
2022-09-10T20:09:24.414Z,100061.81
2022-09-10T20:12:28.063Z,100071.13
2022-09-10T20:15:31.679Z,100069.50
2022-09-10T20:18:36.536Z,100069.38
2022-09-10T20:21:39.220Z,100070.34
2022-09-10T20:24:42.378Z,100073.25
2022-09-10T20:27:44.925Z,100082.62
2022-09-10T20:30:48.295Z,100076.34
2022-09-10T20:33:56.513Z,100082.09
2022-09-10T20:37:00.269Z,100076.00
2022-09-10T20:40:03.215Z,100081.69
2022-09-10T20:43:07.256Z,100074.37
2022-09-10T20:46:16.093Z,100073.75
2022-09-10T20:49:19.126Z,100081.84
2022-09-10T20:52:23.986Z,100077.69
2022-09-10T20:55:26.913Z,100074.59
2022-09-10T20:58:29.696Z,100073.09
2022-09-10T21:01:33.083Z,100065.88
2022-09-10T21:04:36.088Z,100066.59
2022-09-10T21:07:41.487Z,100067.09
2022-09-10T21:10:44.207Z,100061.13
2022-09-10T21:13:53.417Z,100058.00
2022-09-10T21:16:55.975Z,100059.94
2022-09-10T21:20:00.231Z,100067.53
2022-09-10T21:23:02.827Z,100063.97
2022-09-10T21:26:05.911Z,100070.78
2022-09-10T21:29:12.737Z,100071.37
2022-09-10T21:32:16.220Z,100075.50
2022-09-10T21:35:20.112Z,100076.62
2022-09-10T21:38:23.031Z,100084.59
2022-09-10T21:41:33.705Z,100078.44
2022-09-10T21:44:36.675Z,100084.84
2022-09-10T21:47:39.699Z,100084.94
2022-09-10T21:50:42.663Z,100089.94
2022-09-10T21:53:46.657Z,100090.28
2022-09-10T21:56:54.062Z,100083.44
2022-09-10T21:59:56.818Z,100092.03
2022-09-10T22:02:59.744Z,100089.50
2022-09-10T22:06:14.990Z,100088.72
2022-09-10T22:09:17.726Z,100096.00
2022-09-10T22:12:20.658Z,100093.03
2022-09-10T22:15:23.660Z,100083.88
2022-09-10T22:18:26.801Z,100082.22
2022-09-10T22:21:30.379Z,100087.91
2022-09-10T22:24:34.339Z,100093.19
2022-09-10T22:27:36.997Z,100097.03
2022-09-10T22:30:39.957Z,100105.34
2022-09-10T22:33:44.530Z,100100.69
2022-09-10T22:36:49.494Z,100103.12
2022-09-10T22:39:52.883Z,100100.47
2022-09-10T22:42:55.892Z,100102.19
2022-09-10T22:45:58.835Z,100096.56
2022-09-10T22:49:02.076Z,100104.47
2022-09-10T22:52:04.735Z,100111.31
2022-09-10T22:55:08.249Z,100104.69
2022-09-10T22:58:10.783Z,100110.41
2022-09-10T23:01:16.605Z,100110.75
2022-09-10T23:04:19.386Z,100110.41
2022-09-10T23:07:23.920Z,100106.56
2022-09-10T23:10:27.006Z,100105.78
2022-09-10T23:13:30.161Z,100113.78
2022-09-10T23:16:40.895Z,100112.63
2022-09-10T23:19:44.696Z,100111.78
2022-09-10T23:22:48.990Z,100109.00
2022-09-10T23:25:53.432Z,100109.78
2022-09-10T23:28:56.563Z,100116.50
2022-09-10T23:31:59.540Z,100109.75
2022-09-10T23:35:03.429Z,100106.16
2022-09-10T23:38:06.906Z,100117.03
2022-09-10T23:41:12.108Z,100119.97
2022-09-10T23:44:15.622Z,100123.59
2022-09-10T23:47:18.187Z,100123.53
2022-09-10T23:50:22.731Z,100124.78
2022-09-10T23:53:26.505Z,100126.06
2022-09-10T23:56:29.947Z,100120.44
2022-09-10T23:59:32.483Z,100112.09
